Time;durP1;ratioP1;P1;durP2;ratioP2;P2;SDS_P1;SDS_P2;PMS_P1;PMS_P2;Temp;Humidity;BMP_temperature;BMP_pressure;BME280_temperature;BME280_humidity;BME280_pressure;Samples;Min_cycle;Max_cycle;Signal;HPM_P1;HPM_P2
2021/06/30 00:01:52;;;;;;;4.43;0.82;;;;;;;;;;5022533;28;20041;-58
2021/06/30 00:04:19;;;;;;;1.73;1.00;;;;;;;;;;5018028;28;20070;-58
2021/06/30 00:06:45;;;;;;;2.22;0.90;;;;;;;;;;5039558;28;20033;-58
2021/06/30 00:09:14;;;;;;;4.47;0.75;;;;;;;;;;5029402;28;20044;-59
2021/06/30 00:11:44;;;;;;;1.23;0.73;;;;;;;;;;5042377;28;20053;-59
2021/06/30 00:14:13;;;;;;;2.40;0.90;;;;;;;;;;5035295;28;20044;-58
2021/06/30 00:16:39;;;;;;;4.32;0.88;;;;;;;;;;5040034;28;20045;-58
2021/06/30 00:19:07;;;;;;;1.38;0.70;;;;;;;;;;5051097;28;20045;-59
2021/06/30 00:21:33;;;;;;;1.77;0.82;;;;;;;;;;5041419;28;20040;-58
2021/06/30 00:23:59;;;;;;;1.33;0.80;;;;;;;;;;5039031;28;20055;-59
2021/06/30 00:26:27;;;;;;;1.13;0.80;;;;;;;;;;5025052;28;20041;-60
2021/06/30 00:28:54;;;;;;;1.67;0.88;;;;;;;;;;5026858;28;20040;-58
2021/06/30 00:31:22;;;;;;;3.55;0.90;;;;;;;;;;5042633;28;20048;-58
2021/06/30 00:33:49;;;;;;;1.65;0.93;;;;;;;;;;5055793;28;20076;-58
2021/06/30 00:36:15;;;;;;;2.13;1.02;;;;;;;;;;5060647;28;20056;-58
2021/06/30 00:38:42;;;;;;;1.00;0.88;;;;;;;;;;5050343;28;20048;-59
2021/06/30 00:41:08;;;;;;;1.20;0.95;;;;;;;;;;5059211;28;20048;-58
2021/06/30 00:43:36;;;;;;;3.10;1.20;;;;;;;;;;5059424;28;20097;-58
2021/06/30 00:46:03;;;;;;;2.15;0.95;;;;;;;;;;5037115;28;20052;-58
2021/06/30 00:48:30;;;;;;;1.13;1.00;;;;;;;;;;5042427;28;20200;-58
2021/06/30 00:50:56;;;;;;;2.45;1.30;;;;;;;;;;5053390;28;20049;-59
2021/06/30 00:53:23;;;;;;;1.65;1.08;;;;;;;;;;5060315;28;20052;-58
2021/06/30 00:55:50;;;;;;;2.55;1.10;;;;;;;;;;5042164;28;20048;-58
2021/06/30 00:58:17;;;;;;;1.77;1.02;;;;;;;;;;5014436;28;20095;-58
2021/06/30 01:00:45;;;;;;;1.35;1.00;;;;;;;;;;5031776;28;20138;-59
2021/06/30 01:03:12;;;;;;;2.80;1.15;;;;;;;;;;5060161;28;20044;-58
2021/06/30 01:05:39;;;;;;;3.55;1.10;;;;;;;;;;5057433;28;20060;-58
2021/06/30 01:08:05;;;;;;;5.07;1.25;;;;;;;;;;5060098;28;20040;-58
2021/06/30 01:10:32;;;;;;;1.45;1.02;;;;;;;;;;5044465;28;20052;-58
2021/06/30 01:12:58;;;;;;;2.30;1.38;;;;;;;;;;5042039;28;20048;-59
2021/06/30 01:15:25;;;;;;;4.63;1.20;;;;;;;;;;5040975;28;20128;-58
2021/06/30 01:17:53;;;;;;;2.83;1.20;;;;;;;;;;5060794;28;20048;-58
2021/06/30 01:20:20;;;;;;;2.40;1.20;;;;;;;;;;5058055;28;20041;-58
2021/06/30 01:23:05;;;;;;;1.55;1.13;;;;;;;;;;5062318;28;20060;-58
2021/06/30 01:25:33;;;;;;;3.15;1.40;;;;;;;;;;5050375;28;20037;-59
2021/06/30 01:27:59;;;;;;;2.27;1.23;;;;;;;;;;5063088;28;20044;-64
2021/06/30 01:30:26;;;;;;;2.20;1.30;;;;;;;;;;5060134;28;20041;-58
2021/06/30 01:32:54;;;;;;;3.33;1.35;;;;;;;;;;5058620;28;20045;-58
2021/06/30 01:35:21;;;;;;;4.32;1.40;;;;;;;;;;5064109;28;20037;-58
2021/06/30 01:37:48;;;;;;;2.15;1.30;;;;;;;;;;5061435;28;20118;-58
2021/06/30 01:40:15;;;;;;;1.88;1.33;;;;;;;;;;5065272;28;20060;-58
2021/06/30 01:42:45;;;;;;;5.13;1.17;;;;;;;;;;5058795;28;20114;-58
2021/06/30 01:45:11;;;;;;;1.85;1.20;;;;;;;;;;5064533;28;20057;-58
2021/06/30 01:47:39;;;;;;;2.33;1.08;;;;;;;;;;5051014;28;20111;-58
2021/06/30 01:50:06;;;;;;;3.47;1.27;;;;;;;;;;5047336;28;20080;-58
2021/06/30 01:52:32;;;;;;;1.90;1.30;;;;;;;;;;5057748;28;20048;-58
2021/06/30 01:55:00;;;;;;;1.77;1.08;;;;;;;;;;5063089;28;20021;-58
2021/06/30 01:57:27;;;;;;;4.65;1.58;;;;;;;;;;5058828;28;20044;-58
2021/06/30 01:59:54;;;;;;;2.78;1.40;;;;;;;;;;5063580;28;20118;-58
2021/06/30 02:02:21;;;;;;;3.50;1.40;;;;;;;;;;5034690;28;20024;-58
2021/06/30 02:04:51;;;;;;;3.75;1.33;;;;;;;;;;5062997;28;20293;-58
2021/06/30 02:07:18;;;;;;;3.78;1.40;;;;;;;;;;5041925;28;20053;-58
2021/06/30 02:09:44;;;;;;;2.90;1.20;;;;;;;;;;5046728;28;20051;-58
2021/06/30 02:12:12;;;;;;;2.95;1.60;;;;;;;;;;5043157;28;20033;-58
2021/06/30 02:14:44;;;;;;;3.20;1.58;;;;;;;;;;5061057;28;20053;-58
2021/06/30 02:17:12;;;;;;;3.88;1.25;;;;;;;;;;5064793;28;20059;-58
2021/06/30 02:19:38;;;;;;;1.83;1.20;;;;;;;;;;5041177;28;20041;-58
2021/06/30 02:22:05;;;;;;;3.10;1.40;;;;;;;;;;5044665;28;20041;-58
2021/06/30 02:24:31;;;;;;;2.38;1.30;;;;;;;;;;5055882;28;20101;-58
2021/06/30 02:26:58;;;;;;;1.63;1.10;;;;;;;;;;5063640;28;20056;-58
2021/06/30 02:29:24;;;;;;;2.08;1.17;;;;;;;;;;5070449;28;20051;-58
2021/06/30 02:31:50;;;;;;;2.92;1.25;;;;;;;;;;5044847;28;20048;-58
2021/06/30 02:34:18;;;;;;;2.42;1.20;;;;;;;;;;5049913;28;20041;-58
2021/06/30 02:36:45;;;;;;;3.43;1.30;;;;;;;;;;5063732;28;20053;-58
2021/06/30 02:39:11;;;;;;;3.95;1.50;;;;;;;;;;5053548;28;20045;-58
2021/06/30 02:41:38;;;;;;;2.90;1.55;;;;;;;;;;5044045;28;20041;-58
2021/06/30 02:44:04;;;;;;;2.88;1.48;;;;;;;;;;5038956;28;20126;-58
2021/06/30 02:46:30;;;;;;;2.85;1.48;;;;;;;;;;5023535;28;20056;-59
2021/06/30 02:48:57;;;;;;;3.72;1.40;;;;;;;;;;5020636;28;20049;-57
2021/06/30 02:51:25;;;;;;;4.60;1.40;;;;;;;;;;5024345;28;20041;-58
2021/06/30 02:53:53;;;;;;;5.20;1.27;;;;;;;;;;5020912;28;20033;-58
2021/06/30 02:56:21;;;;;;;3.63;1.50;;;;;;;;;;5024548;28;20041;-58
2021/06/30 02:58:47;;;;;;;2.30;1.35;;;;;;;;;;5024919;28;20286;-58
2021/06/30 03:01:14;;;;;;;3.17;1.58;;;;;;;;;;5040372;28;20041;-58
2021/06/30 03:03:40;;;;;;;2.67;1.45;;;;;;;;;;5044406;28;20037;-58
2021/06/30 03:06:07;;;;;;;2.28;1.40;;;;;;;;;;5036524;28;20053;-62
2021/06/30 03:08:34;;;;;;;4.65;1.40;;;;;;;;;;5023292;28;20117;-58
2021/06/30 03:11:01;;;;;;;3.67;1.30;;;;;;;;;;5014272;28;20076;-58
2021/06/30 03:13:28;;;;;;;2.30;1.30;;;;;;;;;;5023691;28;20037;-57
2021/06/30 03:15:55;;;;;;;2.10;1.20;;;;;;;;;;5019118;28;20103;-58
2021/06/30 03:18:22;;;;;;;2.17;1.45;;;;;;;;;;5023836;28;20038;-57
2021/06/30 03:20:48;;;;;;;2.80;1.40;;;;;;;;;;5018294;28;20086;-58
2021/06/30 03:23:15;;;;;;;2.88;1.50;;;;;;;;;;5021276;28;20033;-58
2021/06/30 03:25:43;;;;;;;3.15;1.33;;;;;;;;;;5018360;28;20053;-57
2021/06/30 03:28:09;;;;;;;3.70;1.40;;;;;;;;;;5020660;28;20030;-58
2021/06/30 03:30:36;;;;;;;6.78;1.83;;;;;;;;;;5018385;28;20050;-58
2021/06/30 03:33:03;;;;;;;2.47;1.20;;;;;;;;;;5019845;28;20042;-58
2021/06/30 03:35:29;;;;;;;2.90;1.35;;;;;;;;;;5018052;28;20042;-57
2021/06/30 03:37:56;;;;;;;3.45;1.50;;;;;;;;;;5022004;28;20041;-58
2021/06/30 03:40:23;;;;;;;2.65;1.30;;;;;;;;;;5020120;28;20046;-58
2021/06/30 03:42:53;;;;;;;4.63;1.52;;;;;;;;;;5017984;28;20045;-58
2021/06/30 03:45:19;;;;;;;4.10;1.33;;;;;;;;;;5022468;28;20053;-58
2021/06/30 03:47:46;;;;;;;3.85;1.65;;;;;;;;;;5018238;28;20042;-58
2021/06/30 03:50:12;;;;;;;4.38;1.60;;;;;;;;;;5021876;28;20098;-58
2021/06/30 03:52:39;;;;;;;3.67;1.63;;;;;;;;;;5015902;28;20049;-58
2021/06/30 03:55:06;;;;;;;5.72;1.60;;;;;;;;;;5021328;28;20045;-59
2021/06/30 03:57:32;;;;;;;2.85;1.33;;;;;;;;;;5014196;28;20045;-57
2021/06/30 04:00:00;;;;;;;4.63;1.63;;;;;;;;;;5019308;28;20046;-58
2021/06/30 04:02:27;;;;;;;3.47;1.60;;;;;;;;;;5014832;28;20049;-58
2021/06/30 04:04:53;;;;;;;5.38;1.55;;;;;;;;;;5025945;28;20049;-58
2021/06/30 04:07:20;;;;;;;3.83;1.65;;;;;;;;;;5035596;28;20045;-58
2021/06/30 04:09:46;;;;;;;4.72;1.60;;;;;;;;;;5030667;28;20045;-57
2021/06/30 04:12:13;;;;;;;3.22;1.42;;;;;;;;;;5039368;28;20037;-58
2021/06/30 04:14:39;;;;;;;3.97;1.50;;;;;;;;;;5040855;28;20045;-57
2021/06/30 04:17:07;;;;;;;5.18;1.90;;;;;;;;;;5036711;28;20041;-57
2021/06/30 04:19:34;;;;;;;8.13;1.83;;;;;;;;;;5025133;28;20095;-57
2021/06/30 04:22:01;;;;;;;3.03;1.58;;;;;;;;;;5024840;28;20277;-58
2021/06/30 04:24:28;;;;;;;2.75;1.55;;;;;;;;;;5038035;28;20041;-58
2021/06/30 04:26:54;;;;;;;3.63;1.45;;;;;;;;;;5042670;28;20048;-58
2021/06/30 04:29:21;;;;;;;3.03;1.58;;;;;;;;;;5037025;28;20049;-57
2021/06/30 04:31:48;;;;;;;6.20;1.75;;;;;;;;;;5024618;28;20033;-57
2021/06/30 04:34:16;;;;;;;2.88;1.52;;;;;;;;;;5021194;28;20052;-55
2021/06/30 04:36:43;;;;;;;8.47;1.60;;;;;;;;;;5025502;28;20037;-57
2021/06/30 04:39:10;;;;;;;5.07;1.77;;;;;;;;;;5023502;28;20037;-58
2021/06/30 04:41:36;;;;;;;3.83;1.70;;;;;;;;;;5025651;28;20041;-58
2021/06/30 04:44:03;;;;;;;2.22;1.33;;;;;;;;;;5024105;28;20045;-57
2021/06/30 04:46:29;;;;;;;6.20;1.70;;;;;;;;;;5021318;28;20044;-57
2021/06/30 04:48:55;;;;;;;3.90;1.35;;;;;;;;;;5020628;28;20052;-56
2021/06/30 04:51:26;;;;;;;3.20;1.40;;;;;;;;;;5025098;28;20041;-57
2021/06/30 04:53:52;;;;;;;3.80;1.63;;;;;;;;;;5036099;28;20072;-57
2021/06/30 04:56:26;;;;;;;2.28;1.30;;;;;;;;;;5023865;28;20069;-57
2021/06/30 04:58:53;;;;;;;5.07;1.42;;;;;;;;;;5037819;28;20041;-58
2021/06/30 05:01:20;;;;;;;2.28;1.40;;;;;;;;;;5023992;28;20064;-56
2021/06/30 05:03:46;;;;;;;8.27;1.58;;;;;;;;;;5023521;28;20041;-57
2021/06/30 05:06:13;;;;;;;4.38;1.58;;;;;;;;;;5036830;28;20048;-57
2021/06/30 05:08:41;;;;;;;6.88;1.50;;;;;;;;;;5025287;28;20045;-57
2021/06/30 05:11:07;;;;;;;3.93;1.70;;;;;;;;;;5033324;28;20234;-56
2021/06/30 05:13:34;;;;;;;5.00;2.15;;;;;;;;;;5036758;28;20041;-57
2021/06/30 05:16:01;;;;;;;3.83;1.35;;;;;;;;;;5025285;28;20140;-57
2021/06/30 05:18:27;;;;;;;4.25;1.90;;;;;;;;;;5044451;28;20041;-57
2021/06/30 05:20:53;;;;;;;3.58;1.80;;;;;;;;;;5023967;28;20053;-54
2021/06/30 05:23:20;;;;;;;6.78;2.10;;;;;;;;;;5026854;28;20066;-57
2021/06/30 05:25:48;;;;;;;5.30;1.65;;;;;;;;;;5023855;28;20041;-57
2021/06/30 05:28:14;;;;;;;3.78;1.95;;;;;;;;;;5028688;28;20033;-57
2021/06/30 05:30:41;;;;;;;3.13;1.67;;;;;;;;;;5022448;28;20049;-59
2021/06/30 05:33:07;;;;;;;3.65;2.00;;;;;;;;;;5028097;28;20069;-56
2021/06/30 05:35:34;;;;;;;4.57;1.65;;;;;;;;;;5040218;28;20033;-56
2021/06/30 05:38:00;;;;;;;5.53;1.95;;;;;;;;;;5027835;28;20107;-57
2021/06/30 05:40:27;;;;;;;5.82;1.83;;;;;;;;;;5024841;28;20358;-57
2021/06/30 05:42:56;;;;;;;5.75;2.30;;;;;;;;;;5027420;28;20049;-56
2021/06/30 05:45:23;;;;;;;7.60;1.88;;;;;;;;;;5023651;28;20111;-57
2021/06/30 05:47:50;;;;;;;5.38;3.05;;;;;;;;;;5024943;28;20033;-56
2021/06/30 05:50:17;;;;;;;8.15;2.25;;;;;;;;;;5026346;28;20080;-56
2021/06/30 05:52:44;;;;;;;5.03;2.50;;;;;;;;;;5020361;28;20049;-56
2021/06/30 05:55:12;;;;;;;4.75;2.33;;;;;;;;;;5044106;28;20041;-58
2021/06/30 05:57:38;;;;;;;5.30;2.70;;;;;;;;;;5022860;28;20033;-57
2021/06/30 06:00:07;;;;;;;5.80;2.38;;;;;;;;;;5026767;28;20049;-56
2021/06/30 06:02:34;;;;;;;8.68;2.58;;;;;;;;;;5022621;28;20059;-54
2021/06/30 06:05:00;;;;;;;9.38;4.25;;;;;;;;;;5043524;28;20049;-56
2021/06/30 06:07:27;;;;;;;6.22;2.83;;;;;;;;;;5014943;28;20041;-56
2021/06/30 06:09:53;;;;;;;8.55;2.80;;;;;;;;;;5013745;28;20037;-56
2021/06/30 06:12:22;;;;;;;5.00;2.70;;;;;;;;;;5022716;28;20056;-56
2021/06/30 06:14:49;;;;;;;8.38;3.08;;;;;;;;;;5026892;28;20037;-55
2021/06/30 06:17:16;;;;;;;5.78;2.70;;;;;;;;;;5044404;28;20122;-57
2021/06/30 06:19:43;;;;;;;4.30;2.53;;;;;;;;;;5044535;28;20126;-56
2021/06/30 06:22:10;;;;;;;4.78;2.80;;;;;;;;;;5060311;28;20056;-56
2021/06/30 06:24:36;;;;;;;4.35;2.25;;;;;;;;;;5062539;28;20036;-56
2021/06/30 06:27:03;;;;;;;4.40;2.40;;;;;;;;;;5045324;28;20045;-57
2021/06/30 06:29:29;;;;;;;5.30;2.45;;;;;;;;;;5060720;28;20059;-57
2021/06/30 06:31:57;;;;;;;4.25;2.25;;;;;;;;;;5056239;28;20052;-54
2021/06/30 06:34:25;;;;;;;4.10;2.00;;;;;;;;;;5038243;28;20041;-56
2021/06/30 06:36:52;;;;;;;7.82;2.50;;;;;;;;;;5026715;28;20037;-57
2021/06/30 06:39:20;;;;;;;4.97;2.60;;;;;;;;;;5032592;28;20033;-56
2021/06/30 06:41:47;;;;;;;6.65;2.40;;;;;;;;;;5026298;28;20111;-57
2021/06/30 06:44:13;;;;;;;5.82;2.60;;;;;;;;;;5019954;28;20119;-57
2021/06/30 06:46:40;;;;;;;3.88;2.50;;;;;;;;;;5024999;28;20037;-56
2021/06/30 06:49:07;;;;;;;8.05;2.78;;;;;;;;;;5028868;28;20045;-57
2021/06/30 06:51:38;;;;;;;6.47;3.00;;;;;;;;;;5041852;28;20069;-55
2021/06/30 06:54:05;;;;;;;5.13;2.65;;;;;;;;;;5037094;28;20033;-56
2021/06/30 06:56:31;;;;;;;6.93;2.80;;;;;;;;;;5042705;28;20041;-57
2021/06/30 06:58:58;;;;;;;5.88;2.60;;;;;;;;;;5038570;28;20049;-56
2021/06/30 07:01:25;;;;;;;6.68;2.33;;;;;;;;;;5034163;28;20056;-57
2021/06/30 07:03:52;;;;;;;4.97;2.30;;;;;;;;;;5039975;28;20119;-55
2021/06/30 07:06:21;;;;;;;8.68;2.63;;;;;;;;;;5024908;28;20041;-57
2021/06/30 07:08:49;;;;;;;5.43;2.22;;;;;;;;;;5038622;28;20116;-57
2021/06/30 07:11:18;;;;;;;6.17;2.33;;;;;;;;;;5034255;28;20057;-58
2021/06/30 07:13:46;;;;;;;6.90;2.33;;;;;;;;;;5041386;28;20041;-55
2021/06/30 07:16:13;;;;;;;6.28;2.60;;;;;;;;;;5037366;28;20052;-56
2021/06/30 07:18:39;;;;;;;5.50;2.35;;;;;;;;;;5041969;28;20049;-57
2021/06/30 07:21:08;;;;;;;7.75;2.55;;;;;;;;;;5025626;28;20107;-57
2021/06/30 07:23:35;;;;;;;4.45;2.53;;;;;;;;;;5024920;28;20045;-57
2021/06/30 07:26:03;;;;;;;7.30;2.58;;;;;;;;;;5021344;28;20107;-57
2021/06/30 07:28:30;;;;;;;6.35;2.42;;;;;;;;;;5025448;28;20025;-57
2021/06/30 07:30:56;;;;;;;5.80;2.65;;;;;;;;;;5023871;28;20104;-57
2021/06/30 07:33:23;;;;;;;6.50;2.47;;;;;;;;;;5025005;28;20038;-58
2021/06/30 07:35:49;;;;;;;6.80;2.42;;;;;;;;;;5022541;28;20029;-57
2021/06/30 07:38:16;;;;;;;6.25;2.75;;;;;;;;;;5041883;28;20041;-57
2021/06/30 07:40:42;;;;;;;4.88;2.38;;;;;;;;;;5039977;28;20118;-57
2021/06/30 07:43:10;;;;;;;5.10;2.90;;;;;;;;;;5024396;28;20041;-56
2021/06/30 07:45:37;;;;;;;6.25;2.40;;;;;;;;;;5022139;28;20041;-56
2021/06/30 07:48:04;;;;;;;6.95;3.08;;;;;;;;;;5041397;28;20130;-57
2021/06/30 07:50:30;;;;;;;6.03;2.72;;;;;;;;;;5038333;28;20139;-57
2021/06/30 07:52:58;;;;;;;4.55;2.85;;;;;;;;;;5044260;28;20041;-57
2021/06/30 07:55:24;;;;;;;5.65;2.67;;;;;;;;;;5026027;28;20108;-57
2021/06/30 07:57:51;;;;;;;7.28;2.65;;;;;;;;;;5018986;28;20057;-57
2021/06/30 08:00:19;;;;;;;5.85;2.65;;;;;;;;;;5005420;28;20119;-57
2021/06/30 08:02:45;;;;;;;4.65;2.50;;;;;;;;;;5035152;28;20164;-57
2021/06/30 08:05:12;;;;;;;7.47;2.83;;;;;;;;;;5024133;28;20095;-57
2021/06/30 08:07:39;;;;;;;6.20;2.75;;;;;;;;;;5032110;28;20037;-57
2021/06/30 08:10:06;;;;;;;5.25;2.88;;;;;;;;;;5031369;28;20037;-55
2021/06/30 08:12:33;;;;;;;5.30;2.72;;;;;;;;;;5022396;28;20131;-58
2021/06/30 08:14:59;;;;;;;5.80;2.88;;;;;;;;;;5024177;28;20049;-55
2021/06/30 08:17:27;;;;;;;8.02;2.60;;;;;;;;;;5027939;28;20048;-57
2021/06/30 08:19:53;;;;;;;6.87;2.97;;;;;;;;;;5042628;28;20037;-57
2021/06/30 08:22:20;;;;;;;6.65;2.92;;;;;;;;;;5033069;28;20298;-57
2021/06/30 08:24:47;;;;;;;5.43;2.75;;;;;;;;;;5025542;28;20111;-56
2021/06/30 08:27:14;;;;;;;6.18;3.03;;;;;;;;;;5036082;28;20122;-58
2021/06/30 08:29:42;;;;;;;9.20;2.75;;;;;;;;;;5040968;28;20098;-57
2021/06/30 08:32:10;;;;;;;5.95;2.75;;;;;;;;;;5054333;28;20048;-56
2021/06/30 08:34:38;;;;;;;5.65;3.13;;;;;;;;;;5058526;28;20083;-58
2021/06/30 08:37:05;;;;;;;5.50;3.05;;;;;;;;;;5041957;28;20041;-57
2021/06/30 08:39:33;;;;;;;7.35;2.83;;;;;;;;;;5056739;28;20113;-54
2021/06/30 08:41:59;;;;;;;7.15;2.90;;;;;;;;;;5062191;28;20041;-58
2021/06/30 08:44:26;;;;;;;5.72;3.13;;;;;;;;;;5037153;28;20037;-57
2021/06/30 08:46:55;;;;;;;6.65;3.08;;;;;;;;;;5022160;28;20060;-59
2021/06/30 08:49:25;;;;;;;6.38;3.20;;;;;;;;;;5047378;28;20064;-56
2021/06/30 08:51:53;;;;;;;10.23;3.40;;;;;;;;;;5059211;28;20029;-57
2021/06/30 08:54:20;;;;;;;8.27;3.50;;;;;;;;;;5056180;28;20041;-55
2021/06/30 08:56:47;;;;;;;5.40;2.95;;;;;;;;;;5060580;28;20086;-57
2021/06/30 08:59:16;;;;;;;6.03;3.03;;;;;;;;;;5050330;28;20064;-57
2021/06/30 09:01:44;;;;;;;5.95;3.25;;;;;;;;;;5044432;28;20040;-57
2021/06/30 09:04:13;;;;;;;6.97;3.33;;;;;;;;;;5044521;28;20057;-57
2021/06/30 09:06:40;;;;;;;6.38;3.05;;;;;;;;;;5059015;28;20040;-57
2021/06/30 09:09:09;;;;;;;8.40;2.85;;;;;;;;;;5053352;28;20114;-58
2021/06/30 09:11:37;;;;;;;5.78;2.85;;;;;;;;;;5043926;28;20095;-57
2021/06/30 09:14:12;;;;;;;5.78;2.75;;;;;;;;;;5039645;28;20037;-57
2021/06/30 09:16:54;;;;;;;4.18;2.30;;;;;;;;;;5060410;28;20052;-56
2021/06/30 09:19:21;;;;;;;4.88;2.65;;;;;;;;;;5041534;28;20068;-57
2021/06/30 09:21:47;;;;;;;6.97;2.92;;;;;;;;;;5060745;28;20142;-58
2021/06/30 09:24:18;;;;;;;6.13;3.00;;;;;;;;;;5056690;28;20571;-58
2021/06/30 09:26:48;;;;;;;6.53;2.47;;;;;;;;;;5076299;28;20048;-58
2021/06/30 09:29:17;;;;;;;6.63;2.70;;;;;;;;;;5075172;28;20043;-58
2021/06/30 09:31:44;;;;;;;4.05;2.08;;;;;;;;;;5059781;28;20048;-57
2021/06/30 09:34:11;;;;;;;5.20;2.60;;;;;;;;;;5059195;28;20041;-58
2021/06/30 09:36:44;;;;;;;3.88;2.00;;;;;;;;;;5072485;28;20052;-57
2021/06/30 09:39:12;;;;;;;4.40;2.10;;;;;;;;;;5060873;28;20122;-58
2021/06/30 09:41:44;;;;;;;5.35;2.17;;;;;;;;;;5056332;28;20045;-58
2021/06/30 09:44:12;;;;;;;3.40;1.95;;;;;;;;;;5059376;28;20047;-57
2021/06/30 09:46:39;;;;;;;5.30;2.40;;;;;;;;;;5055578;28;20041;-58
2021/06/30 09:49:06;;;;;;;4.85;2.38;;;;;;;;;;5058999;28;20125;-58
2021/06/30 09:51:33;;;;;;;4.10;2.28;;;;;;;;;;5056915;28;20060;-58
2021/06/30 09:54:05;;;;;;;4.80;2.35;;;;;;;;;;5042635;28;20025;-58
2021/06/30 09:56:37;;;;;;;4.88;2.30;;;;;;;;;;5076606;28;20045;-58
2021/06/30 09:59:18;;;;;;;6.43;2.40;;;;;;;;;;5062656;28;20037;-57
2021/06/30 10:01:52;;;;;;;5.82;2.53;;;;;;;;;;5056721;28;20106;-58
2021/06/30 10:04:23;;;;;;;4.03;2.00;;;;;;;;;;5061513;28;20080;-58
2021/06/30 10:06:49;;;;;;;4.53;2.30;;;;;;;;;;5059461;28;20147;-58
2021/06/30 10:09:16;;;;;;;4.03;2.15;;;;;;;;;;5068260;28;20036;-58
2021/06/30 10:11:43;;;;;;;6.22;2.17;;;;;;;;;;5056865;28;20056;-58
2021/06/30 10:14:09;;;;;;;4.40;2.08;;;;;;;;;;5062538;28;20028;-58
2021/06/30 10:16:37;;;;;;;7.60;2.35;;;;;;;;;;5051908;28;20042;-58
2021/06/30 10:19:04;;;;;;;3.72;2.08;;;;;;;;;;5043391;28;20079;-58
2021/06/30 10:21:31;;;;;;;5.47;2.08;;;;;;;;;;5042154;28;20068;-57
2021/06/30 10:23:58;;;;;;;4.13;2.10;;;;;;;;;;5061476;28;20119;-57
2021/06/30 10:26:25;;;;;;;7.13;2.25;;;;;;;;;;5061947;28;20166;-58
2021/06/30 10:28:53;;;;;;;3.90;2.22;;;;;;;;;;5025713;28;20056;-58
2021/06/30 10:31:20;;;;;;;5.05;2.42;;;;;;;;;;5034843;28;20089;-58
2021/06/30 10:33:57;;;;;;;6.30;2.30;;;;;;;;;;5060004;28;20057;-58
2021/06/30 10:36:38;;;;;;;4.45;2.40;;;;;;;;;;5060736;28;20065;-58
2021/06/30 10:39:04;;;;;;;5.82;2.60;;;;;;;;;;5059458;28;20052;-58
2021/06/30 10:41:41;;;;;;;4.30;2.28;;;;;;;;;;5061948;28;20040;-58
2021/06/30 10:44:09;;;;;;;4.53;2.47;;;;;;;;;;5041015;28;20112;-58
2021/06/30 10:46:35;;;;;;;5.43;2.63;;;;;;;;;;5025769;28;20126;-58
2021/06/30 10:49:24;;;;;;;4.50;2.33;;;;;;;;;;5049461;28;20048;-58
2021/06/30 10:51:56;;;;;;;5.88;2.53;;;;;;;;;;5060741;28;20013;-58
2021/06/30 10:54:42;;;;;;;3.92;2.28;;;;;;;;;;5056881;28;20037;-58
2021/06/30 10:57:25;;;;;;;6.82;2.38;;;;;;;;;;5061392;28;20048;-58
2021/06/30 11:00:12;;;;;;;5.65;2.80;;;;;;;;;;5038323;28;20041;-58
2021/06/30 11:02:40;;;;;;;4.78;2.47;;;;;;;;;;5026366;28;20053;-58
2021/06/30 11:05:25;;;;;;;5.28;2.60;;;;;;;;;;5058656;28;20052;-58
2021/06/30 11:07:55;;;;;;;6.30;2.95;;;;;;;;;;5062708;28;20037;-58
2021/06/30 11:10:40;;;;;;;6.07;2.70;;;;;;;;;;5048284;28;20049;-58
2021/06/30 11:13:07;;;;;;;6.20;3.03;;;;;;;;;;5045233;28;20041;-58
2021/06/30 11:15:39;;;;;;;5.85;3.10;;;;;;;;;;5059139;28;20040;-58
2021/06/30 11:18:26;;;;;;;5.45;3.10;;;;;;;;;;5061132;28;20049;-58
2021/06/30 11:20:53;;;;;;;8.00;3.22;;;;;;;;;;5061334;28;20053;-58
2021/06/30 11:23:23;;;;;;;7.60;3.42;;;;;;;;;;5061283;28;20033;-58
2021/06/30 11:25:50;;;;;;;6.60;2.92;;;;;;;;;;5048759;28;20048;-58
2021/06/30 11:28:29;;;;;;;5.10;2.85;;;;;;;;;;5043927;28;20037;-58
2021/06/30 11:30:55;;;;;;;6.70;2.85;;;;;;;;;;5040927;28;20032;-58
2021/06/30 11:33:22;;;;;;;5.43;2.83;;;;;;;;;;5060877;28;20064;-58
2021/06/30 11:35:49;;;;;;;4.55;2.70;;;;;;;;;;5051375;28;20096;-58
2021/06/30 11:38:17;;;;;;;7.18;3.35;;;;;;;;;;5060112;28;20044;-58
2021/06/30 11:40:55;;;;;;;7.82;3.65;;;;;;;;;;5040468;28;20045;-57
2021/06/30 11:43:24;;;;;;;6.45;3.25;;;;;;;;;;5059732;28;20033;-57
2021/06/30 11:45:52;;;;;;;7.15;3.55;;;;;;;;;;5056739;28;20048;-57
2021/06/30 11:48:19;;;;;;;7.20;3.50;;;;;;;;;;5063332;28;20191;-57
2021/06/30 11:50:47;;;;;;;7.30;3.85;;;;;;;;;;5050636;28;20036;-58
2021/06/30 11:53:14;;;;;;;8.43;3.55;;;;;;;;;;5044321;28;20071;-58
2021/06/30 11:55:42;;;;;;;5.70;3.20;;;;;;;;;;5038332;28;20061;-58
2021/06/30 11:58:10;;;;;;;6.70;3.33;;;;;;;;;;5041814;28;20055;-57
2021/06/30 12:00:40;;;;;;;10.48;3.80;;;;;;;;;;5044536;28;20121;-58
2021/06/30 12:03:07;;;;;;;6.07;3.35;;;;;;;;;;5060143;28;20048;-58
2021/06/30 12:05:35;;;;;;;7.97;2.92;;;;;;;;;;5058038;28;20126;-58
2021/06/30 12:08:03;;;;;;;7.80;2.97;;;;;;;;;;5060950;28;20072;-57
2021/06/30 12:10:30;;;;;;;8.07;3.50;;;;;;;;;;5072996;28;20060;-58
2021/06/30 12:12:57;;;;;;;7.70;3.03;;;;;;;;;;5062205;28;20098;-58
2021/06/30 12:15:25;;;;;;;8.57;3.42;;;;;;;;;;5059474;28;20117;-57
2021/06/30 12:17:52;;;;;;;9.30;3.43;;;;;;;;;;5055711;28;20045;-57
2021/06/30 12:20:19;;;;;;;7.85;3.08;;;;;;;;;;5060927;28;20270;-58
2021/06/30 12:22:46;;;;;;;6.03;3.50;;;;;;;;;;5069042;28;20055;-58
2021/06/30 12:25:24;;;;;;;8.43;3.40;;;;;;;;;;5053337;28;20033;-57
2021/06/30 12:27:52;;;;;;;8.63;3.60;;;;;;;;;;5037411;28;20032;-58
2021/06/30 12:30:19;;;;;;;14.15;4.13;;;;;;;;;;5061494;28;20102;-57
2021/06/30 12:32:49;;;;;;;9.75;3.90;;;;;;;;;;5057150;28;20048;-57
2021/06/30 12:35:16;;;;;;;11.02;4.40;;;;;;;;;;5060694;28;20072;-57
2021/06/30 12:37:44;;;;;;;7.68;3.78;;;;;;;;;;5050018;28;20072;-58
2021/06/30 12:40:12;;;;;;;12.05;4.38;;;;;;;;;;5045477;28;20032;-57
2021/06/30 12:42:42;;;;;;;8.75;4.43;;;;;;;;;;5047098;28;20106;-57
2021/06/30 12:45:12;;;;;;;8.68;3.63;;;;;;;;;;5060847;28;20037;-57
2021/06/30 12:47:50;;;;;;;7.85;3.60;;;;;;;;;;5053910;28;20044;-58
2021/06/30 12:50:23;;;;;;;11.13;4.13;;;;;;;;;;5042314;28;20083;-58
2021/06/30 12:52:58;;;;;;;8.10;3.72;;;;;;;;;;5039631;28;20148;-58
2021/06/30 12:55:24;;;;;;;6.90;3.28;;;;;;;;;;5024571;28;20042;-58
2021/06/30 12:58:01;;;;;;;8.85;3.20;;;;;;;;;;5020920;28;20029;-58
2021/06/30 13:00:29;;;;;;;7.88;3.03;;;;;;;;;;5021390;28;20107;-57
2021/06/30 13:03:14;;;;;;;9.00;3.13;;;;;;;;;;5019063;28;20045;-58
2021/06/30 13:05:41;;;;;;;6.78;3.25;;;;;;;;;;5019375;28;20073;-58
2021/06/30 13:08:23;;;;;;;8.85;3.35;;;;;;;;;;5018475;28;20136;-58
2021/06/30 13:11:00;;;;;;;8.93;3.08;;;;;;;;;;5020506;28;20053;-58
2021/06/30 13:13:26;;;;;;;8.38;3.08;;;;;;;;;;5016810;28;20041;-58
2021/06/30 13:16:05;;;;;;;7.07;2.80;;;;;;;;;;5021578;28;20057;-58
2021/06/30 13:18:41;;;;;;;5.47;2.50;;;;;;;;;;5017332;28;20052;-57
2021/06/30 13:21:08;;;;;;;8.32;2.83;;;;;;;;;;5019685;28;20046;-58
2021/06/30 13:23:37;;;;;;;6.22;2.60;;;;;;;;;;5017073;28;20045;-58
2021/06/30 13:26:11;;;;;;;6.65;2.85;;;;;;;;;;5020645;28;20049;-58
2021/06/30 13:28:55;;;;;;;4.50;2.15;;;;;;;;;;5016167;28;20124;-58
2021/06/30 13:34:21;;;;;;;6.07;2.60;;;;;;;;;;5019667;28;20093;-58
2021/06/30 13:36:55;;;;;;;5.40;2.72;;;;;;;;;;5021056;28;20053;-58
2021/06/30 13:39:22;;;;;;;5.90;2.70;;;;;;;;;;5012515;28;20029;-60
2021/06/30 13:41:48;;;;;;;6.28;3.25;;;;;;;;;;5036500;28;20090;-60
2021/06/30 13:44:21;;;;;;;6.18;2.80;;;;;;;;;;5019401;28;20041;-61
2021/06/30 13:46:48;;;;;;;8.32;3.13;;;;;;;;;;5023740;28;20061;-60
2021/06/30 13:49:14;;;;;;;11.93;3.10;;;;;;;;;;5022008;28;20089;-61
2021/06/30 13:51:43;;;;;;;7.28;2.53;;;;;;;;;;5022210;28;20046;-61
2021/06/30 13:54:10;;;;;;;6.78;2.70;;;;;;;;;;5023231;28;20038;-60
2021/06/30 13:56:37;;;;;;;6.90;2.17;;;;;;;;;;5021995;28;20093;-62
2021/06/30 13:59:04;;;;;;;4.03;2.28;;;;;;;;;;5022874;28;20060;-60
2021/06/30 14:01:31;;;;;;;5.82;2.60;;;;;;;;;;5018598;28;20127;-61
2021/06/30 14:04:02;;;;;;;5.22;2.63;;;;;;;;;;5022693;28;20103;-60
2021/06/30 14:06:29;;;;;;;9.82;2.88;;;;;;;;;;5018435;28;20065;-60
2021/06/30 14:08:57;;;;;;;5.72;2.50;;;;;;;;;;5020477;28;20040;-61
2021/06/30 14:11:25;;;;;;;12.18;3.05;;;;;;;;;;5011385;28;20143;-60
2021/06/30 14:13:52;;;;;;;7.57;2.88;;;;;;;;;;5022622;28;20026;-60
2021/06/30 14:16:18;;;;;;;9.20;3.50;;;;;;;;;;5019118;28;20057;-61
2021/06/30 14:18:45;;;;;;;6.80;3.28;;;;;;;;;;5023798;28;20119;-60
2021/06/30 14:21:11;;;;;;;6.97;2.92;;;;;;;;;;5010536;28;20044;-61
2021/06/30 14:23:38;;;;;;;10.25;2.97;;;;;;;;;;5023456;28;20135;-60
2021/06/30 14:26:06;;;;;;;7.05;3.38;;;;;;;;;;5018653;28;20648;-61
2021/06/30 14:28:34;;;;;;;7.65;3.33;;;;;;;;;;5022886;28;20042;-60
2021/06/30 14:31:01;;;;;;;11.15;3.55;;;;;;;;;;5020543;28;20053;-61
2021/06/30 14:33:28;;;;;;;10.02;4.10;;;;;;;;;;5021846;28;20037;-60
2021/06/30 14:35:54;;;;;;;11.63;4.03;;;;;;;;;;5023827;28;20179;-61
2021/06/30 14:38:21;;;;;;;11.18;3.85;;;;;;;;;;5017969;28;20065;-61
2021/06/30 14:40:48;;;;;;;11.82;3.78;;;;;;;;;;5021718;28;20081;-61
2021/06/30 14:43:16;;;;;;;10.85;3.88;;;;;;;;;;5018691;28;20061;-61
2021/06/30 14:45:43;;;;;;;9.07;3.67;;;;;;;;;;5018902;28;20119;-60
2021/06/30 14:48:11;;;;;;;9.27;3.60;;;;;;;;;;5023608;28;20052;-61
2021/06/30 14:50:37;;;;;;;9.75;4.32;;;;;;;;;;5023094;28;20042;-61
2021/06/30 14:53:05;;;;;;;7.55;4.20;;;;;;;;;;5018262;28;20041;-61